createdAt,value
2022-12-22T00:00:52.549Z,98101.56
2022-12-22T00:02:13.124Z,98092.63
2022-12-22T00:03:33.573Z,98083.91
2022-12-22T00:04:54.316Z,98081.06
2022-12-22T00:06:14.612Z,98086.56
2022-12-22T00:07:35.073Z,98078.63
2022-12-22T00:08:57.906Z,98075.78
2022-12-22T00:10:22.618Z,98074.78
2022-12-22T00:11:43.544Z,98079.03
2022-12-22T00:13:03.879Z,98074.56
2022-12-22T00:14:24.449Z,98067.66
2022-12-22T00:15:49.919Z,98076.59
2022-12-22T00:17:10.185Z,98069.72
2022-12-22T00:18:34.513Z,98071.53
2022-12-22T00:19:54.844Z,98071.53
2022-12-22T00:21:15.366Z,98063.63
2022-12-22T00:22:45.512Z,98055.13
2022-12-22T00:24:06.494Z,98063.03
2022-12-22T00:25:32.861Z,98057.75
2022-12-22T00:26:54.888Z,98047.00
2022-12-22T00:28:15.485Z,98047.00
2022-12-22T00:29:35.903Z,98043.75
2022-12-22T00:30:56.873Z,98037.84
2022-12-22T00:32:17.075Z,98054.31
2022-12-22T00:33:40.077Z,98041.94
2022-12-22T00:35:01.448Z,98034.22
2022-12-22T00:36:29.420Z,98034.00
2022-12-22T00:37:55.721Z,98032.41
2022-12-22T00:39:16.125Z,98052.47
2022-12-22T00:40:40.070Z,98039.50
2022-12-22T00:42:00.659Z,98038.06
2022-12-22T00:43:21.105Z,98036.25
2022-12-22T00:44:41.361Z,98033.81
2022-12-22T00:46:01.673Z,98041.50
2022-12-22T00:47:22.197Z,98036.66
2022-12-22T00:48:45.567Z,98035.63
2022-12-22T00:50:08.542Z,98036.44
2022-12-22T00:51:30.951Z,98027.53
2022-12-22T00:52:52.697Z,98043.34
2022-12-22T00:54:13.087Z,98035.44
2022-12-22T00:55:38.254Z,98036.25
2022-12-22T00:56:58.565Z,98043.94
2022-12-22T00:58:21.076Z,98039.50
2022-12-22T00:59:41.468Z,98038.47
2022-12-22T01:01:01.930Z,98026.31
2022-12-22T01:02:23.018Z,98036.44
2022-12-22T01:03:43.272Z,98030.34
2022-12-22T01:05:03.336Z,98040.69
2022-12-22T01:06:29.184Z,98027.50
2022-12-22T01:07:49.529Z,98031.16
2022-12-22T01:09:09.871Z,98027.50
2022-12-22T01:10:34.225Z,98030.97
2022-12-22T01:11:54.478Z,98031.78
2022-12-22T01:13:14.889Z,98023.03
2022-12-22T01:14:36.093Z,98025.47
2022-12-22T01:15:56.600Z,98036.03
2022-12-22T01:17:17.061Z,98027.91
2022-12-22T01:18:37.366Z,98028.09
2022-12-22T01:19:57.746Z,98025.25
2022-12-22T01:21:18.255Z,98039.47
2022-12-22T01:22:40.208Z,98039.25
2022-12-22T01:24:01.261Z,98032.38
2022-12-22T01:25:29.761Z,98040.88
2022-12-22T01:26:50.592Z,98027.91
2022-12-22T01:28:10.936Z,98029.31
2022-12-22T01:29:31.212Z,98033.59
2022-12-22T01:30:51.522Z,98024.69
2022-12-22T01:32:11.943Z,98019.41
2022-12-22T01:33:32.819Z,98027.72
2022-12-22T01:34:54.744Z,98021.84
2022-12-22T01:36:15.101Z,98027.91
2022-12-22T01:37:35.398Z,98014.53
2022-12-22T01:38:55.808Z,98011.88
2022-12-22T01:40:16.196Z,98013.50
2022-12-22T01:41:39.743Z,97994.81
2022-12-22T01:43:00.189Z,97999.28
2022-12-22T01:44:20.539Z,97996.66
2022-12-22T01:45:51.126Z,97992.19
2022-12-22T01:47:11.558Z,97984.47
2022-12-22T01:48:45.933Z,97984.88
2022-12-22T01:50:06.265Z,97990.13
2022-12-22T01:51:37.070Z,97995.22
2022-12-22T01:52:57.407Z,97989.13
2022-12-22T01:54:18.179Z,97994.22
2022-12-22T01:55:43.448Z,97987.09
2022-12-22T01:57:06.516Z,97981.81
2022-12-22T01:58:44.994Z,97983.44
2022-12-22T02:00:05.427Z,97986.09
2022-12-22T02:01:25.998Z,97986.88
2022-12-22T02:02:51.282Z,97983.22
2022-12-22T02:04:11.899Z,97983.00
2022-12-22T02:05:38.243Z,97980.59
2022-12-22T02:07:04.441Z,97977.94
2022-12-22T02:08:48.231Z,97972.47
2022-12-22T02:10:33.017Z,97969.22
2022-12-22T02:12:20.156Z,97984.25
2022-12-22T02:14:14.800Z,97973.50
2022-12-22T02:15:54.271Z,97963.97
2022-12-22T02:17:53.456Z,97963.16
2022-12-22T02:19:27.147Z,97970.25
2022-12-22T02:21:07.822Z,97963.38
2022-12-22T02:22:39.980Z,97945.13
2022-12-22T02:24:42.074Z,97953.84
2022-12-22T02:26:46.197Z,97959.50
2022-12-22T02:28:12.120Z,97954.22
2022-12-22T02:29:46.217Z,97959.72
2022-12-22T02:31:09.364Z,97961.34
2022-12-22T02:32:29.906Z,97952.03
2022-12-22T02:33:50.366Z,97966.81
2022-12-22T02:35:10.826Z,97965.81
2022-12-22T02:36:57.735Z,97960.53
2022-12-22T02:38:55.398Z,97966.81
2022-12-22T02:40:41.523Z,97965.22
2022-12-22T02:42:30.110Z,97973.94
2022-12-22T02:44:11.455Z,97964.19
2022-12-22T02:46:10.210Z,97973.72
2022-12-22T02:47:35.794Z,97965.81
2022-12-22T02:49:20.988Z,97971.69
2022-12-22T02:50:49.913Z,97959.50
2022-12-22T02:52:23.368Z,97956.06
2022-12-22T02:53:45.744Z,97955.25
2022-12-22T02:55:06.210Z,97951.59
2022-12-22T02:56:29.927Z,97956.47
2022-12-22T02:57:50.390Z,97965.38
2022-12-22T02:59:11.879Z,97945.69
2022-12-22T03:00:32.746Z,97944.91
2022-12-22T03:01:53.848Z,97933.53
2022-12-22T03:03:14.359Z,97939.41
2022-12-22T03:04:35.002Z,97937.78
2022-12-22T03:05:55.340Z,97928.84
2022-12-22T03:07:15.698Z,97931.50
2022-12-22T03:08:36.113Z,97928.03
2022-12-22T03:09:56.443Z,97925.41
2022-12-22T03:11:16.940Z,97922.19
2022-12-22T03:12:37.052Z,97925.63
2022-12-22T03:13:57.396Z,97923.16
2022-12-22T03:15:17.667Z,97924.00
2022-12-22T03:16:38.226Z,97924.00
2022-12-22T03:17:58.546Z,97911.00
2022-12-22T03:19:19.232Z,97916.28
2022-12-22T03:20:39.564Z,97913.06
2022-12-22T03:22:00.011Z,97901.91
2022-12-22T03:23:25.477Z,97899.28
2022-12-22T03:24:45.849Z,97905.56
2022-12-22T03:26:05.865Z,97892.16
2022-12-22T03:27:07.669Z,97890.34
2022-12-22T03:28:09.971Z,97894.59
2022-12-22T03:29:11.772Z,97895.97
2022-12-22T03:30:13.604Z,97891.94
2022-12-22T03:31:15.508Z,97885.66
2022-12-22T03:32:17.296Z,97901.25
2022-12-22T03:33:19.053Z,97894.78
2022-12-22T03:34:20.861Z,97892.34
2022-12-22T03:35:22.838Z,97892.34
2022-12-22T03:36:24.950Z,97886.25
2022-12-22T03:37:26.696Z,97895.00
2022-12-22T03:38:28.861Z,97880.97
2022-12-22T03:39:31.188Z,97879.16
2022-12-22T03:40:33.200Z,97883.00
2022-12-22T03:41:53.897Z,97883.81
2022-12-22T03:43:14.340Z,97889.31
2022-12-22T03:44:34.805Z,97884.84
2022-12-22T03:45:55.238Z,97882.41
2022-12-22T03:46:57.073Z,97872.09
2022-12-22T03:47:58.856Z,97870.84
2022-12-22T03:49:12.816Z,97861.09
2022-12-22T03:50:14.611Z,97862.94
2022-12-22T03:51:16.375Z,97864.53
2022-12-22T03:52:18.081Z,97859.06
2022-12-22T03:53:19.793Z,97869.59
2022-12-22T03:54:26.237Z,97862.31
2022-12-22T03:55:27.968Z,97869.19
2022-12-22T03:56:30.097Z,97877.13
2022-12-22T03:57:31.854Z,97863.94
2022-12-22T03:58:33.549Z,97865.53
2022-12-22T03:59:35.298Z,97858.44
2022-12-22T04:00:37.006Z,97857.19
2022-12-22T04:01:47.323Z,97849.28
2022-12-22T04:02:49.510Z,97856.16
2022-12-22T04:03:51.377Z,97859.63
2022-12-22T04:04:53.140Z,97866.72
2022-12-22T04:05:54.842Z,97866.50
2022-12-22T04:06:56.561Z,97861.22
2022-12-22T04:07:58.356Z,97861.00
2022-12-22T04:09:00.211Z,97863.66
2022-12-22T04:10:20.658Z,97852.91
2022-12-22T04:11:41.179Z,97860.81
2022-12-22T04:12:54.841Z,97870.56
2022-12-22T04:13:56.663Z,97851.28
2022-12-22T04:14:58.426Z,97859.00
2022-12-22T04:16:00.177Z,97859.00
2022-12-22T04:17:07.446Z,97853.50
2022-12-22T04:18:09.289Z,97861.63
2022-12-22T04:19:11.035Z,97852.91
2022-12-22T04:20:13.228Z,97876.44
2022-12-22T04:21:15.031Z,97864.84
2022-12-22T04:22:16.753Z,97869.91
2022-12-22T04:23:18.453Z,97855.91
2022-12-22T04:24:20.165Z,97856.72
2022-12-22T04:25:23.190Z,97853.06
2022-12-22T04:26:26.048Z,97851.00
2022-12-22T04:27:27.869Z,97853.44
2022-12-22T04:28:29.774Z,97863.81
2022-12-22T04:29:31.557Z,97857.50
2022-12-22T04:30:33.265Z,97870.69
2022-12-22T04:31:35.821Z,97843.69
2022-12-22T04:32:37.973Z,97849.78
2022-12-22T04:33:40.151Z,97845.13
2022-12-22T04:34:41.914Z,97852.00
2022-12-22T04:35:43.846Z,97846.72
2022-12-22T04:36:45.635Z,97845.69
2022-12-22T04:37:47.395Z,97848.13
2022-12-22T04:38:49.188Z,97846.28
2022-12-22T04:39:50.969Z,97843.66
2022-12-22T04:40:52.705Z,97841.00
2022-12-22T04:41:54.397Z,97847.09
2022-12-22T04:42:56.118Z,97849.72
2022-12-22T04:43:57.888Z,97845.47
2022-12-22T04:44:59.672Z,97834.94
2022-12-22T04:46:01.839Z,97843.88
2022-12-22T04:47:03.794Z,97837.56
2022-12-22T04:48:05.868Z,97832.28
2022-12-22T04:49:07.716Z,97828.03
2022-12-22T04:50:09.882Z,97830.66
2022-12-22T04:51:11.592Z,97831.69
2022-12-22T04:52:13.380Z,97829.88
2022-12-22T04:53:15.191Z,97822.75
2022-12-22T04:54:16.949Z,97826.63
2022-12-22T04:55:18.812Z,97829.06
2022-12-22T04:56:20.637Z,97825.84
2022-12-22T04:57:22.969Z,97830.09
2022-12-22T04:58:24.759Z,97824.22
2022-12-22T04:59:26.637Z,97832.13
2022-12-22T05:00:28.686Z,97827.03
2022-12-22T05:01:30.560Z,97830.50
2022-12-22T05:02:32.431Z,97841.84
2022-12-22T05:03:34.263Z,97832.31
2022-12-22T05:04:36.047Z,97821.56
2022-12-22T05:05:38.495Z,97828.88
2022-12-22T05:06:40.416Z,97824.63
2022-12-22T05:07:43.316Z,97829.91
2022-12-22T05:08:45.079Z,97826.47
2022-12-22T05:09:46.804Z,97821.63
2022-12-22T05:10:48.656Z,97829.75
2022-12-22T05:11:50.489Z,97812.31
2022-12-22T05:12:55.111Z,97809.66
2022-12-22T05:14:00.823Z,97819.41
2022-12-22T05:15:05.843Z,97810.47
2022-12-22T05:16:15.106Z,97822.88
2022-12-22T05:17:16.964Z,97814.13
2022-12-22T05:18:18.722Z,97816.78
2022-12-22T05:19:22.333Z,97806.44
2022-12-22T05:20:27.935Z,97810.88
2022-12-22T05:21:29.685Z,97806.22
2022-12-22T05:22:31.387Z,97809.88
2022-12-22T05:23:33.815Z,97810.28
2022-12-22T05:24:35.623Z,97816.38
2022-12-22T05:25:37.357Z,97799.97
2022-12-22T05:26:39.063Z,97802.38
2022-12-22T05:27:41.389Z,97810.28
2022-12-22T05:28:48.946Z,97806.63
2022-12-22T05:29:50.727Z,97796.75
2022-12-22T05:30:53.385Z,97811.31
2022-12-22T05:31:55.250Z,97809.94
2022-12-22T05:32:57.047Z,97799.97
2022-12-22T05:33:58.795Z,97805.47
2022-12-22T05:35:01.161Z,97803.03
2022-12-22T05:36:03.861Z,97796.75
2022-12-22T05:37:05.632Z,97813.38
2022-12-22T05:38:07.431Z,97802.00
2022-12-22T05:39:09.331Z,97808.53
2022-12-22T05:40:12.429Z,97807.28
2022-12-22T05:41:15.063Z,97804.88
2022-12-22T05:42:35.582Z,97818.06
2022-12-22T05:43:37.724Z,97797.97
2022-12-22T05:44:39.493Z,97806.69
2022-12-22T05:45:41.470Z,97806.69
2022-12-22T05:46:43.337Z,97814.63
2022-12-22T05:47:48.927Z,97815.41
2022-12-22T05:48:50.678Z,97806.69
2022-12-22T05:49:52.388Z,97814.41
2022-12-22T05:50:54.153Z,97810.94
2022-12-22T05:51:56.679Z,97811.97
2022-12-22T05:52:59.088Z,97804.06
2022-12-22T05:54:00.866Z,97796.16
2022-12-22T05:55:04.120Z,97807.50
2022-12-22T05:56:07.670Z,97796.16
2022-12-22T05:57:09.418Z,97803.66
2022-12-22T05:58:11.192Z,97792.91
2022-12-22T05:59:12.976Z,97799.00
2022-12-22T06:00:16.651Z,97803.47
2022-12-22T06:01:18.380Z,97804.28
2022-12-22T06:02:20.286Z,97795.34
2022-12-22T06:03:22.365Z,97797.16
2022-12-22T06:04:24.286Z,97800.84
2022-12-22T06:05:26.264Z,97801.84
2022-12-22T06:06:28.473Z,97808.75
2022-12-22T06:07:30.240Z,97812.38
2022-12-22T06:08:32.093Z,97802.44
2022-12-22T06:09:33.842Z,97801.03
2022-12-22T06:10:35.579Z,97804.47
2022-12-22T06:11:37.293Z,97800.22
2022-12-22T06:12:39.847Z,97800.44
2022-12-22T06:13:41.601Z,97801.47
2022-12-22T06:14:43.470Z,97800.66
2022-12-22T06:15:45.247Z,97799.03
2022-12-22T06:16:48.097Z,97803.50
2022-12-22T06:17:49.877Z,97787.91
2022-12-22T06:18:51.604Z,97790.53
2022-12-22T06:19:53.336Z,97792.38
2022-12-22T06:20:55.082Z,97783.66
2022-12-22T06:21:56.835Z,97781.81
2022-12-22T06:22:58.665Z,97777.56
2022-12-22T06:24:00.438Z,97773.91
2022-12-22T06:25:02.461Z,97787.09
2022-12-22T06:26:04.268Z,97776.53
2022-12-22T06:27:06.169Z,97785.84
2022-12-22T06:28:08.051Z,97789.50
2022-12-22T06:29:09.893Z,97789.28
2022-12-22T06:30:12.167Z,97774.28
2022-12-22T06:31:14.021Z,97785.84
2022-12-22T06:32:15.848Z,97792.16
2022-12-22T06:33:17.622Z,97797.22
2022-12-22T06:34:19.856Z,97791.72
2022-12-22T06:35:21.592Z,97809.38
2022-12-22T06:36:23.303Z,97795.38
2022-12-22T06:37:25.043Z,97792.75
2022-12-22T06:38:28.009Z,97793.53
2022-12-22T06:39:29.870Z,97797.78
2022-12-22T06:40:31.636Z,97793.13
2022-12-22T06:41:52.394Z,97797.56
2022-12-22T06:43:10.022Z,97797.00
2022-12-22T06:44:12.214Z,97790.91
2022-12-22T06:45:14.047Z,97797.78
2022-12-22T06:46:15.800Z,97793.13
2022-12-22T06:47:17.766Z,97798.19
2022-12-22T06:48:20.182Z,97807.72
2022-12-22T06:49:22.363Z,97803.25
2022-12-22T06:50:24.116Z,97813.22
2022-12-22T06:51:25.822Z,97806.69
2022-12-22T06:52:27.541Z,97804.06
2022-12-22T06:53:29.384Z,97803.84
2022-12-22T06:54:31.151Z,97803.63
2022-12-22T06:55:32.949Z,97792.03
2022-12-22T06:56:34.839Z,97797.31
2022-12-22T06:57:36.639Z,97805.25
2022-12-22T06:58:38.412Z,97807.66
2022-12-22T06:59:40.186Z,97800.56
2022-12-22T07:00:43.057Z,97806.63
2022-12-22T07:01:44.995Z,97808.47
2022-12-22T07:02:47.242Z,97808.06
2022-12-22T07:03:49.210Z,97806.00
2022-12-22T07:04:50.993Z,97806.00
2022-12-22T07:05:52.834Z,97816.56
2022-12-22T07:06:54.591Z,97802.56
2022-12-22T07:07:57.272Z,97812.91
2022-12-22T07:09:01.623Z,97810.25
2022-12-22T07:10:04.784Z,97821.63
2022-12-22T07:11:06.604Z,97814.50
2022-12-22T07:12:08.384Z,97832.75
2022-12-22T07:13:23.939Z,97829.09
2022-12-22T07:14:25.786Z,97828.28
2022-12-22T07:15:27.498Z,97825.22
2022-12-22T07:16:29.380Z,97834.16
2022-12-22T07:17:31.275Z,97830.50
2022-12-22T07:18:37.408Z,97829.69
2022-12-22T07:19:39.135Z,97820.97
2022-12-22T07:20:40.977Z,97831.31
2022-12-22T07:21:42.770Z,97826.03
2022-12-22T07:22:44.520Z,97812.81
2022-12-22T07:23:46.360Z,97821.78
2022-12-22T07:24:48.140Z,97827.44
2022-12-22T07:25:49.991Z,97832.94
2022-12-22T07:26:51.836Z,97837.19
2022-12-22T07:27:53.540Z,97828.25
2022-12-22T07:28:55.380Z,97828.25
2022-12-22T07:29:57.141Z,97830.09
2022-12-22T07:30:58.938Z,97830.66
2022-12-22T07:32:00.734Z,97836.75
2022-12-22T07:33:04.096Z,97830.22
2022-12-22T07:34:05.857Z,97833.91
2022-12-22T07:35:08.162Z,97834.94
2022-12-22T07:36:14.334Z,97832.06
2022-12-22T07:37:16.044Z,97833.91
2022-12-22T07:38:17.759Z,97836.31
2022-12-22T07:39:19.520Z,97847.47
2022-12-22T07:40:21.686Z,97839.75
2022-12-22T07:41:41.795Z,97835.06
2022-12-22T07:42:46.406Z,97839.53
2022-12-22T07:43:48.130Z,97843.00
2022-12-22T07:44:49.833Z,97847.28
2022-12-22T07:45:51.592Z,97839.72
2022-12-22T07:46:53.425Z,97839.72
2022-12-22T07:48:22.943Z,97844.78
2022-12-22T07:49:43.085Z,97843.97
2022-12-22T07:50:44.855Z,97845.81
2022-12-22T07:51:46.894Z,97852.47
2022-12-22T07:52:48.666Z,97851.44
2022-12-22T07:53:50.407Z,97854.09
2022-12-22T07:54:52.170Z,97850.44
2022-12-22T07:55:53.885Z,97858.34
2022-12-22T07:56:56.026Z,97853.88
2022-12-22T07:57:58.818Z,97841.28
2022-12-22T07:59:00.852Z,97852.66
2022-12-22T08:00:03.844Z,97836.81
2022-12-22T08:01:05.665Z,97845.31
2022-12-22T08:02:12.131Z,97849.81
2022-12-22T08:03:14.102Z,97848.78
2022-12-22T08:04:16.202Z,97843.28
2022-12-22T08:05:18.764Z,97847.31
2022-12-22T08:06:20.583Z,97849.94
2022-12-22T08:07:22.342Z,97836.75
2022-12-22T08:08:24.273Z,97850.53
2022-12-22T08:09:26.084Z,97837.94
2022-12-22T08:10:27.872Z,97839.34
2022-12-22T08:11:29.710Z,97838.31
2022-12-22T08:12:32.576Z,97841.53
2022-12-22T08:13:35.086Z,97840.28
2022-12-22T08:14:36.894Z,97848.22
2022-12-22T08:15:38.692Z,97837.66
2022-12-22T08:16:40.492Z,97840.69
2022-12-22T08:17:42.228Z,97847.00
2022-12-22T08:18:44.468Z,97844.94
2022-12-22T08:19:46.303Z,97840.25
2022-12-22T08:20:52.095Z,97842.44
2022-12-22T08:21:53.885Z,97841.22
2022-12-22T08:22:57.500Z,97834.09
2022-12-22T08:23:59.307Z,97840.78
2022-12-22T08:25:01.011Z,97833.66
2022-12-22T08:26:24.439Z,97842.53
2022-12-22T08:27:33.160Z,97840.50
2022-12-22T08:28:43.161Z,97841.88
2022-12-22T08:29:51.467Z,97828.69
2022-12-22T08:30:54.063Z,97824.78
2022-12-22T08:31:56.349Z,97838.00
2022-12-22T08:32:58.262Z,97839.59
2022-12-22T08:34:05.914Z,97838.00
2022-12-22T08:35:10.437Z,97834.31
2022-12-22T08:36:13.750Z,97836.38
2022-12-22T08:37:20.284Z,97827.66
2022-12-22T08:38:22.558Z,97839.81
2022-12-22T08:39:31.038Z,97834.53
2022-12-22T08:40:33.910Z,97833.75
2022-12-22T08:41:51.777Z,97824.19
2022-12-22T08:43:04.439Z,97837.19
2022-12-22T08:44:06.239Z,97836.38
2022-12-22T08:45:11.180Z,97838.56
2022-12-22T08:46:12.957Z,97844.88
2022-12-22T08:47:17.169Z,97839.59
2022-12-22T08:48:19.194Z,97842.25
2022-12-22T08:49:21.783Z,97838.78
2022-12-22T08:50:23.714Z,97836.16
2022-12-22T08:51:25.573Z,97840.41
2022-12-22T08:52:27.412Z,97845.47
2022-12-22T08:54:03.485Z,97842.81
2022-12-22T08:54:51.023Z,97843.84
2022-12-22T08:55:56.190Z,97836.75
2022-12-22T08:56:58.649Z,97843.06
2022-12-22T08:58:03.855Z,97840.63
2022-12-22T08:59:07.962Z,97832.94
2022-12-22T09:00:12.952Z,97838.00
2022-12-22T09:01:21.788Z,97826.63
2022-12-22T09:02:23.735Z,97831.91
2022-12-22T09:03:25.671Z,97829.84
2022-12-22T09:04:27.487Z,97831.91
2022-12-22T09:05:29.249Z,97840.63
2022-12-22T09:06:38.309Z,97839.59
2022-12-22T09:07:42.712Z,97834.91
2022-12-22T09:08:44.468Z,97841.78
2022-12-22T09:09:46.722Z,97837.94
2022-12-22T09:10:48.563Z,97841.16
2022-12-22T09:11:50.709Z,97843.81
2022-12-22T09:12:52.437Z,97842.78
2022-12-22T09:13:57.625Z,97847.03
2022-12-22T09:14:59.457Z,97844.38
2022-12-22T09:16:09.466Z,97846.81
2022-12-22T09:17:11.300Z,97852.09
2022-12-22T09:18:13.034Z,97849.44
2022-12-22T09:19:14.806Z,97846.00
2022-12-22T09:20:16.713Z,97863.91
2022-12-22T09:21:18.567Z,97859.44
2022-12-22T09:22:28.243Z,97870.00
2022-12-22T09:23:32.824Z,97853.91
2022-12-22T09:24:34.581Z,97864.28
2022-12-22T09:25:36.411Z,97859.44
2022-12-22T09:26:38.310Z,97853.91
2022-12-22T09:27:40.063Z,97858.19
2022-12-22T09:28:46.590Z,97862.47
2022-12-22T09:29:51.784Z,97847.84
2022-12-22T09:30:53.801Z,97850.69
2022-12-22T09:31:55.683Z,97865.75
2022-12-22T09:32:57.503Z,97859.88
2022-12-22T09:33:59.331Z,97868.59
2022-12-22T09:35:01.048Z,97878.16
2022-12-22T09:36:12.572Z,97880.78
2022-12-22T09:37:17.870Z,97867.81
2022-12-22T09:38:20.164Z,97872.06
2022-12-22T09:39:26.936Z,97885.28
2022-12-22T09:40:33.169Z,97865.97
2022-12-22T09:42:06.830Z,97868.84
2022-12-22T09:43:22.419Z,97886.53
2022-12-22T09:44:50.159Z,97875.94
2022-12-22T09:45:52.033Z,97877.97
2022-12-22T09:47:08.749Z,97892.00
2022-12-22T09:48:23.255Z,97879.00
2022-12-22T09:49:35.224Z,97892.00
2022-12-22T09:50:41.980Z,97885.09
2022-12-22T09:52:08.618Z,97882.47
2022-12-22T09:53:32.738Z,97870.28
2022-12-22T09:54:38.678Z,97884.50
2022-12-22T09:55:53.311Z,97885.91
2022-12-22T09:57:13.896Z,97887.75
2022-12-22T09:58:35.014Z,97888.78
2022-12-22T09:59:39.159Z,97881.88
2022-12-22T10:00:47.512Z,97865.78
2022-12-22T10:02:43.307Z,97879.81
2022-12-22T10:04:21.816Z,97890.81
2022-12-22T10:05:47.576Z,97885.53
2022-12-22T10:07:37.786Z,97871.53
2022-12-22T10:08:55.413Z,97882.16
2022-12-22T10:10:11.614Z,97886.41
2022-12-22T10:11:31.621Z,97882.75
2022-12-22T10:12:49.405Z,97888.03
2022-12-22T10:14:00.916Z,97878.28
2022-12-22T10:15:34.514Z,97896.16
2022-12-22T10:16:41.054Z,97892.94
2022-12-22T10:18:13.321Z,97887.44
2022-12-22T10:19:27.569Z,97890.06
2022-12-22T10:20:51.673Z,97895.97
2022-12-22T10:22:54.536Z,97886.63
2022-12-22T10:24:12.769Z,97895.00
2022-12-22T10:27:13.210Z,97890.97
2022-12-22T10:28:49.005Z,97890.97
2022-12-22T10:30:36.599Z,97885.09
2022-12-22T10:32:01.980Z,97901.97
2022-12-22T10:34:03.826Z,97895.84
2022-12-22T10:35:25.289Z,97895.47
2022-12-22T10:36:32.383Z,97886.53
2022-12-22T10:37:46.183Z,97891.81
2022-12-22T10:39:09.356Z,97906.22
2022-12-22T10:40:44.975Z,97902.53
2022-12-22T10:42:01.668Z,97896.25
2022-12-22T10:43:09.785Z,97910.25
2022-12-22T10:44:26.482Z,97905.78
2022-12-22T10:45:29.624Z,97905.78
2022-12-22T10:48:46.255Z,97902.69
2022-12-22T10:51:10.466Z,97896.38
2022-12-22T10:52:49.967Z,97906.94
2022-12-22T10:54:00.980Z,97886.41
2022-12-22T10:55:33.703Z,97904.31
2022-12-22T10:56:35.736Z,97911.19
2022-12-22T10:57:57.030Z,97909.19
2022-12-22T10:59:02.136Z,97909.19
2022-12-22T11:00:40.682Z,97901.03
2022-12-22T11:01:52.955Z,97918.72
2022-12-22T11:03:09.566Z,97906.31
2022-12-22T11:04:30.538Z,97919.31
2022-12-22T11:05:36.165Z,97915.63
2022-12-22T11:06:58.181Z,97922.75
2022-12-22T11:08:33.461Z,97924.59
2022-12-22T11:09:40.993Z,97911.16
2022-12-22T11:11:27.778Z,97919.09
2022-12-22T11:13:26.325Z,97911.16
2022-12-22T11:15:23.736Z,97906.09
2022-12-22T11:16:53.066Z,97922.97
2022-12-22T11:18:53.451Z,97918.72
2022-12-22T11:20:54.428Z,97912.00
2022-12-22T11:22:35.555Z,97918.53
2022-12-22T11:24:15.300Z,97912.66
2022-12-22T11:25:38.030Z,97906.81
2022-12-22T11:27:33.086Z,97921.84
2022-12-22T11:29:07.004Z,97922.66
2022-12-22T11:30:51.874Z,97913.69
2022-12-22T11:32:29.474Z,97914.72
2022-12-22T11:34:21.746Z,97914.94
2022-12-22T11:36:05.901Z,97916.97
2022-12-22T11:37:51.009Z,97912.53
2022-12-22T11:39:22.228Z,97903.97
2022-12-22T11:40:48.814Z,97893.19
2022-12-22T11:42:31.991Z,97900.53
2022-12-22T11:44:07.373Z,97906.63
2022-12-22T11:45:54.990Z,97902.16
2022-12-22T11:49:26.283Z,97903.56
2022-12-22T11:50:58.435Z,97908.84
2022-12-22T11:52:37.427Z,97909.44
2022-12-22T11:54:12.504Z,97913.69
2022-12-22T11:56:04.886Z,97903.13
2022-12-22T11:58:25.162Z,97904.75
2022-12-22T12:00:16.692Z,97915.31
2022-12-22T12:02:03.823Z,97918.97
2022-12-22T12:03:41.654Z,97923.25
2022-12-22T12:05:22.711Z,97932.56
2022-12-22T12:07:00.386Z,97919.13
2022-12-22T12:09:03.208Z,97933.34
2022-12-22T12:10:54.692Z,97923.81
2022-12-22T12:12:41.679Z,97923.59
2022-12-22T12:14:19.048Z,97928.88
2022-12-22T12:15:42.603Z,97933.13
2022-12-22T12:17:23.415Z,97932.72
2022-12-22T12:19:10.454Z,97930.09
2022-12-22T12:20:46.959Z,97941.47
2022-12-22T12:22:14.647Z,97939.41
2022-12-22T12:24:32.595Z,97944.47
2022-12-22T12:26:09.762Z,97947.91
2022-12-22T12:28:02.151Z,97947.69
2022-12-22T12:29:38.050Z,97954.00
2022-12-22T12:31:04.724Z,97952.75
2022-12-22T12:32:28.886Z,97944.66
2022-12-22T12:34:05.775Z,97958.66
2022-12-22T12:36:02.594Z,97961.31
2022-12-22T12:37:30.786Z,97970.84
2022-12-22T12:39:16.845Z,97964.31
2022-12-22T12:40:55.534Z,97978.31
2022-12-22T12:42:40.645Z,97977.31
2022-12-22T12:43:54.900Z,97971.00
2022-12-22T12:45:15.099Z,97979.53
2022-12-22T12:47:02.480Z,97977.50
2022-12-22T12:48:35.123Z,97979.94
2022-12-22T16:51:58.120Z,98131.75
2022-12-22T16:53:08.191Z,98121.50
2022-12-22T16:54:33.770Z,98122.66
2022-12-22T16:55:54.601Z,98127.06
2022-12-22T16:57:02.867Z,98115.41
2022-12-22T16:58:14.337Z,98121.47
2022-12-22T16:59:21.926Z,98123.22
2022-12-22T17:00:33.604Z,98119.28
2022-12-22T17:01:47.693Z,98117.16
2022-12-22T17:03:31.385Z,98112.22
2022-12-22T17:04:39.148Z,98118.16
2022-12-22T17:05:50.671Z,98113.09
2022-12-22T17:07:02.528Z,98110.91
2022-12-22T17:08:21.647Z,98109.09
2022-12-22T17:09:39.480Z,98105.03
2022-12-22T17:10:44.160Z,98108.28
2022-12-22T17:11:49.911Z,98112.72
2022-12-22T17:13:15.380Z,98109.09
2022-12-22T17:14:32.950Z,98112.34
2022-12-22T17:15:38.579Z,98109.88
2022-12-22T17:16:56.709Z,98111.72
2022-12-22T17:18:01.275Z,98109.47
2022-12-22T17:19:07.014Z,98108.47
2022-12-22T17:20:30.590Z,98117.34
2022-12-22T17:21:43.812Z,98109.91
2022-12-22T17:23:07.032Z,98106.63
2022-12-22T17:24:14.890Z,98110.47
2022-12-22T17:25:28.702Z,98101.34
2022-12-22T17:26:45.907Z,98106.19
2022-12-22T17:27:51.911Z,98093.41
2022-12-22T17:29:19.074Z,98101.53
2022-12-22T17:30:34.826Z,98096.63
2022-12-22T17:31:50.469Z,98092.97
2022-12-22T17:32:53.094Z,98094.38
2022-12-22T17:34:03.337Z,98094.78
2022-12-22T17:36:44.706Z,98083.81
2022-12-22T17:38:24.822Z,98091.28
2022-12-22T17:39:40.431Z,98083.59
2022-12-22T17:40:51.381Z,98084.81
2022-12-22T17:41:59.647Z,98075.88
2022-12-22T17:43:04.187Z,98068.75
2022-12-22T17:44:35.207Z,98074.63
2022-12-22T17:45:42.732Z,98066.72
2022-12-22T17:46:47.369Z,98075.22
2022-12-22T17:48:02.650Z,98068.72
2022-12-22T17:49:16.337Z,98064.47
2022-12-22T17:50:27.838Z,98064.06
2022-12-22T17:51:35.302Z,98055.31
2022-12-22T17:52:43.238Z,98054.91
2022-12-22T17:54:30.699Z,98052.84
2022-12-22T17:56:07.244Z,98053.06
2022-12-22T17:57:25.284Z,98045.16
2022-12-22T17:58:31.835Z,98058.13
2022-12-22T17:59:41.469Z,98050.22
2022-12-22T18:00:58.822Z,98053.88
2022-12-22T18:02:23.185Z,98051.25
2022-12-22T18:03:33.927Z,98041.50
2022-12-22T18:04:54.993Z,98051.25
2022-12-22T18:06:06.276Z,98045.16
2022-12-22T18:07:13.696Z,98042.50
2022-12-22T18:08:31.905Z,98036.81
2022-12-22T18:09:39.991Z,98036.22
2022-12-22T18:11:03.886Z,98033.00
2022-12-22T18:12:33.540Z,98023.69
2022-12-22T18:13:44.386Z,98026.31
2022-12-22T18:14:58.221Z,98018.63
2022-12-22T18:16:10.848Z,98022.28
2022-12-22T18:17:43.040Z,98018.81
2022-12-22T18:18:45.160Z,98026.94
2022-12-22T18:19:46.914Z,98023.88
2022-12-22T18:21:06.151Z,98016.78
2022-12-22T18:22:25.210Z,98007.25
2022-12-22T18:23:31.320Z,97999.31
2022-12-22T18:24:33.041Z,98002.19
2022-12-22T18:25:34.957Z,98007.25
2022-12-22T18:26:38.110Z,98003.00
2022-12-22T18:27:39.854Z,98001.97
2022-12-22T18:28:41.681Z,97995.66
2022-12-22T18:29:44.246Z,97989.59
2022-12-22T18:30:46.938Z,97985.09
2022-12-22T18:31:48.777Z,97987.75
2022-12-22T18:32:53.365Z,97977.19
2022-12-22T18:33:55.102Z,97981.22
2022-12-22T18:34:56.911Z,97974.34
2022-12-22T18:35:59.830Z,97976.16
2022-12-22T18:37:04.076Z,97981.44
2022-12-22T18:38:07.260Z,97976.16